Time;durP1;ratioP1;P1;durP2;ratioP2;P2;SDS_P1;SDS_P2;PMS_P1;PMS_P2;Temp;Humidity;BMP_temperature;BMP_pressure;BME280_temperature;BME280_humidity;BME280_pressure;Samples;Min_cycle;Max_cycle;Signal;HPM_P1;HPM_P2
2022/12/01 00:00:56;;;;;;;3.80;2.40;;;21.30;55.60;;;;;;5084125;28;20029;-70
2022/12/01 00:03:22;;;;;;;3.42;2.28;;;21.40;55.70;;;;;;5077986;28;20472;-70
2022/12/01 00:05:56;;;;;;;3.75;2.35;;;21.40;55.70;;;;;;5081369;28;20020;-70
2022/12/01 00:08:21;;;;;;;3.00;2.20;;;21.30;55.70;;;;;;5082986;28;20031;-70
2022/12/01 00:10:47;;;;;;;3.55;2.45;;;21.30;55.70;;;;;;5081706;28;20388;-70
2022/12/01 00:13:13;;;;;;;3.53;2.40;;;21.30;55.80;;;;;;5081184;28;20024;-70
2022/12/01 00:15:38;;;;;;;3.65;2.63;;;21.30;55.80;;;;;;5080704;28;20488;-70
2022/12/01 00:18:04;;;;;;;3.35;2.30;;;21.30;55.80;;;;;;5080594;28;20028;-70
2022/12/01 00:20:32;;;;;;;3.38;2.40;;;21.30;55.80;;;;;;5082981;28;20040;-70
2022/12/01 00:22:58;;;;;;;4.03;2.47;;;21.20;55.80;;;;;;5087109;28;20043;-70
2022/12/01 00:25:24;;;;;;;3.42;2.33;;;21.20;55.80;;;;;;5079320;28;20032;-71
2022/12/01 00:27:51;;;;;;;2.90;2.00;;;21.20;55.90;;;;;;5077999;28;20062;-70
2022/12/01 00:30:18;;;;;;;3.00;2.08;;;21.20;55.90;;;;;;5082763;28;20549;-70
2022/12/01 00:32:44;;;;;;;3.85;2.33;;;21.20;55.90;;;;;;5077694;28;20052;-70
2022/12/01 00:35:10;;;;;;;2.97;2.00;;;21.20;55.90;;;;;;5086206;28;20117;-70
2022/12/01 00:37:36;;;;;;;3.03;2.20;;;21.20;55.90;;;;;;5082266;28;20020;-70
2022/12/01 00:40:03;;;;;;;3.10;2.10;;;21.20;55.90;;;;;;5078356;28;20040;-70
2022/12/01 00:42:29;;;;;;;3.20;2.17;;;21.10;55.90;;;;;;5080956;28;20500;-70
2022/12/01 00:44:54;;;;;;;3.25;1.92;;;21.10;55.90;;;;;;5077863;28;20062;-70
2022/12/01 00:47:20;;;;;;;3.85;2.25;;;21.10;55.90;;;;;;5079387;28;20055;-70
2022/12/01 00:49:46;;;;;;;3.38;2.17;;;21.10;55.90;;;;;;5078435;28;20501;-70
2022/12/01 00:52:13;;;;;;;3.15;2.25;;;21.10;55.90;;;;;;5078814;28;20024;-70
2022/12/01 00:54:38;;;;;;;3.33;2.20;;;21.10;56.00;;;;;;5083799;28;20109;-70
2022/12/01 00:57:05;;;;;;;2.80;2.08;;;21.00;56.00;;;;;;5078432;28;20058;-70
2022/12/01 00:59:30;;;;;;;2.92;2.17;;;21.10;56.10;;;;;;5078760;28;20440;-70
2022/12/01 01:01:56;;;;;;;2.75;2.00;;;21.00;56.00;;;;;;5079818;28;20129;-70
2022/12/01 01:04:22;;;;;;;3.00;2.20;;;21.00;56.00;;;;;;5081606;28;20111;-70
2022/12/01 01:06:47;;;;;;;3.60;2.22;;;21.00;56.00;;;;;;5075598;28;20046;-70
2022/12/01 01:09:14;;;;;;;3.20;2.40;;;21.00;56.00;;;;;;5076488;28;20145;-70
2022/12/01 01:11:40;;;;;;;3.10;2.10;;;21.00;56.00;;;;;;5077840;28;20025;-70
2022/12/01 01:14:07;;;;;;;2.80;2.00;;;21.00;56.10;;;;;;5079341;28;20470;-70
2022/12/01 01:16:33;;;;;;;3.10;1.98;;;21.00;56.10;;;;;;5078957;28;20563;-70
2022/12/01 01:18:59;;;;;;;3.05;2.15;;;21.00;56.00;;;;;;5083801;28;20032;-70
2022/12/01 01:21:25;;;;;;;2.83;2.15;;;21.00;56.10;;;;;;5078578;28;20090;-70
2022/12/01 01:23:52;;;;;;;2.90;2.20;;;21.00;56.10;;;;;;5075374;28;20032;-70
2022/12/01 01:26:26;;;;;;;3.00;2.20;;;21.00;56.10;;;;;;5075087;28;20364;-70
2022/12/01 01:28:55;;;;;;;2.92;2.15;;;20.90;56.10;;;;;;5075046;28;20037;-70
2022/12/01 01:31:23;;;;;;;2.58;1.98;;;21.00;56.10;;;;;;5080097;28;20028;-70
2022/12/01 01:33:49;;;;;;;3.35;2.10;;;20.90;56.10;;;;;;5079968;28;20037;-70
2022/12/01 01:36:16;;;;;;;2.58;1.90;;;20.90;56.10;;;;;;5077598;28;20040;-70
2022/12/01 01:38:43;;;;;;;2.92;2.13;;;20.90;56.10;;;;;;5080002;28;20067;-70
2022/12/01 01:41:09;;;;;;;2.92;2.05;;;20.90;56.20;;;;;;5077326;28;20476;-70
2022/12/01 01:43:37;;;;;;;2.95;2.10;;;20.90;56.20;;;;;;5073863;28;20029;-70
2022/12/01 01:46:07;;;;;;;3.13;2.20;;;20.90;56.20;;;;;;5077391;28;20032;-70
2022/12/01 01:48:35;;;;;;;2.83;2.00;;;20.90;56.20;;;;;;5081227;28;20040;-69
2022/12/01 01:51:01;;;;;;;3.08;2.38;;;20.90;56.20;;;;;;5087107;28;20039;-70
2022/12/01 01:53:27;;;;;;;2.42;1.80;;;20.90;56.20;;;;;;5080356;28;20383;-69
2022/12/01 01:55:53;;;;;;;2.67;2.13;;;20.80;56.20;;;;;;5074751;28;20017;-69
2022/12/01 01:58:19;;;;;;;2.67;1.88;;;20.80;56.20;;;;;;5075588;28;20029;-70
2022/12/01 02:00:45;;;;;;;2.85;1.90;;;20.80;56.20;;;;;;5079365;28;20032;-69
2022/12/01 02:03:14;;;;;;;2.85;2.20;;;20.80;56.20;;;;;;5077520;28;20021;-69
2022/12/01 02:05:41;;;;;;;3.08;2.30;;;20.80;56.20;;;;;;5077330;28;20079;-70
2022/12/01 02:08:13;;;;;;;3.00;2.00;;;20.80;56.30;;;;;;5080274;28;20502;-69
2022/12/01 02:10:53;;;;;;;2.58;1.85;;;20.80;56.30;;;;;;5076378;28;20028;-69
2022/12/01 02:13:46;;;;;;;2.83;2.00;;;20.80;56.30;;;;;;5083190;28;20360;-69
2022/12/01 02:16:31;;;;;;;2.80;2.08;;;20.80;56.30;;;;;;5077697;28;20103;-69
2022/12/01 02:19:21;;;;;;;3.00;1.95;;;20.70;56.30;;;;;;5080937;28;20420;-69
2022/12/01 02:21:46;;;;;;;;;;;20.80;56.30;;;;;;5076548;28;20044;-69
2022/12/01 02:24:30;;;;;;;2.65;2.05;;;20.70;56.30;;;;;;5075177;28;20385;-69
2022/12/01 02:27:14;;;;;;;2.70;1.90;;;20.70;56.30;;;;;;5083584;28;20043;-69
2022/12/01 02:29:54;;;;;;;3.08;2.10;;;20.70;56.30;;;;;;5076396;28;20024;-69
2022/12/01 02:32:47;;;;;;;2.80;1.70;;;20.70;56.40;;;;;;5080569;28;20044;-69
2022/12/01 02:35:55;;;;;;;2.58;1.92;;;20.70;56.40;;;;;;5081222;28;20030;-69
2022/12/01 02:38:35;;;;;;;3.40;2.22;;;20.70;56.40;;;;;;5073021;28;20450;-69
2022/12/01 02:41:19;;;;;;;2.90;2.28;;;20.70;56.40;;;;;;5076613;28;20032;-69
2022/12/01 02:43:55;;;;;;;2.72;1.98;;;20.70;56.40;;;;;;5079672;28;20765;-69
2022/12/01 02:46:43;;;;;;;2.85;2.00;;;20.70;56.50;;;;;;5080938;28;20028;-69
2022/12/01 02:49:37;;;;;;;2.55;2.00;;;20.60;56.40;;;;;;5074741;28;20033;-70
2022/12/01 02:52:05;;;;;;;2.75;2.00;;;20.60;56.40;;;;;;5078240;28;20075;-69
2022/12/01 02:54:32;;;;;;;2.17;1.67;;;20.60;56.40;;;;;;5079812;28;20657;-69
2022/12/01 02:56:58;;;;;;;2.60;1.70;;;20.60;56.40;;;;;;5082197;28;20065;-69
2022/12/01 02:59:24;;;;;;;2.83;2.00;;;20.60;56.40;;;;;;5079156;28;20063;-69
2022/12/01 03:02:41;;;;;;;2.50;1.95;;;20.60;56.50;;;;;;5082641;28;20032;-70
2022/12/01 03:05:23;;;;;;;2.70;1.90;;;20.60;56.50;;;;;;5029357;28;20037;-69
2022/12/01 03:08:25;;;;;;;2.60;1.90;;;20.60;56.50;;;;;;5029587;28;20135;-69
2022/12/01 03:10:55;;;;;;;3.17;2.00;;;20.60;56.50;;;;;;5074064;28;20047;-69
2022/12/01 03:13:35;;;;;;;2.85;1.90;;;20.50;56.90;;;;;;5077868;28;20440;-69
2022/12/01 03:16:05;;;;;;;;;;;20.60;56.50;;;;;;5081394;28;20024;-69
2022/12/01 03:18:57;;;;;;;2.65;1.80;;;20.60;56.50;;;;;;5081461;28;19912;-69
2022/12/01 03:21:36;;;;;;;2.67;1.90;;;20.60;56.50;;;;;;5081694;28;20032;-70
2022/12/01 03:24:12;;;;;;;3.10;2.22;;;20.60;56.50;;;;;;5083034;28;20032;-69
2022/12/01 03:26:41;;;;;;;2.60;1.88;;;20.60;56.60;;;;;;5078947;28;20063;-70
2022/12/01 03:29:14;;;;;;;2.78;2.00;;;20.50;56.50;;;;;;5082371;28;20039;-69
2022/12/01 03:31:47;;;;;;;2.70;1.88;;;20.50;56.60;;;;;;5082147;28;20036;-70
2022/12/01 03:34:19;;;;;;;2.78;2.00;;;20.50;56.60;;;;;;5081954;28;20025;-69
2022/12/01 03:36:48;;;;;;;3.33;1.80;;;20.50;56.60;;;;;;5081985;28;20021;-69
2022/12/01 03:39:20;;;;;;;2.70;1.92;;;20.50;56.60;;;;;;5076625;28;20024;-69
2022/12/01 03:42:17;;;;;;;2.95;2.10;;;20.50;57.10;;;;;;5078499;28;20507;-70
2022/12/01 03:44:55;;;;;;;2.65;1.90;;;20.50;56.60;;;;;;5079592;28;20397;-69
2022/12/01 03:47:30;;;;;;;2.42;1.60;;;20.50;56.60;;;;;;5080853;28;20056;-70
2022/12/01 03:49:58;;;;;;;2.60;1.92;;;20.50;56.70;;;;;;5078241;28;20029;-70
2022/12/01 03:52:27;;;;;;;2.30;1.60;;;20.50;56.70;;;;;;5081977;28;20028;-70
2022/12/01 03:55:08;;;;;;;3.67;2.40;;;20.50;56.60;;;;;;5081739;28;20100;-69
2022/12/01 03:57:56;;;;;;;2.53;1.90;;;20.50;56.70;;;;;;5079461;28;20024;-69
2022/12/01 04:00:22;;;;;;;2.88;2.13;;;20.50;56.70;;;;;;5068375;28;20132;-69
2022/12/01 04:02:55;;;;;;;2.80;2.10;;;20.50;56.70;;;;;;5082974;28;20036;-69
2022/12/01 04:05:20;;;;;;;2.72;1.90;;;20.50;56.70;;;;;;5079055;28;20529;-69
2022/12/01 04:07:46;;;;;;;3.00;2.08;;;20.50;56.70;;;;;;5080969;28;20075;-69
2022/12/01 04:10:11;;;;;;;2.92;1.90;;;20.50;56.70;;;;;;5080444;28;20062;-70
2022/12/01 04:12:37;;;;;;;2.78;1.95;;;20.40;56.70;;;;;;5080474;28;20476;-69
2022/12/01 04:15:07;;;;;;;2.53;1.67;;;20.50;56.80;;;;;;5078681;28;20166;-69
2022/12/01 04:17:32;;;;;;;;;;;20.40;56.80;;;;;;5078428;28;20498;-69
2022/12/01 04:19:58;;;;;;;2.95;2.22;;;20.40;56.80;;;;;;5079522;28;20006;-69
2022/12/01 04:22:24;;;;;;;2.70;1.90;;;20.40;56.80;;;;;;5082299;28;20036;-69
2022/12/01 04:24:50;;;;;;;2.85;1.92;;;20.40;56.80;;;;;;5078976;28;20028;-70
2022/12/01 04:27:16;;;;;;;2.75;2.20;;;20.40;56.80;;;;;;5079158;28;20039;-69
2022/12/01 04:29:41;;;;;;;3.03;2.25;;;20.40;56.80;;;;;;5082346;28;20909;-69
2022/12/01 04:32:07;;;;;;;2.85;2.00;;;20.40;56.90;;;;;;5078762;28;20024;-69
2022/12/01 04:34:33;;;;;;;2.60;1.92;;;20.40;56.90;;;;;;5077040;28;20060;-69
2022/12/01 04:36:59;;;;;;;2.78;1.90;;;20.40;56.90;;;;;;5078339;28;20102;-70
2022/12/01 04:39:24;;;;;;;2.42;1.80;;;20.40;56.90;;;;;;5079715;28;20020;-70
2022/12/01 04:41:50;;;;;;;2.50;1.80;;;20.40;56.90;;;;;;5078671;28;20028;-70
2022/12/01 04:44:15;;;;;;;2.50;1.85;;;20.40;56.90;;;;;;5080393;28;20028;-70
2022/12/01 04:46:41;;;;;;;2.75;1.88;;;20.30;56.80;;;;;;5081996;28;20032;-70
2022/12/01 04:49:07;;;;;;;2.97;2.08;;;20.30;56.90;;;;;;5082686;28;20123;-70
2022/12/01 04:51:32;;;;;;;2.45;1.60;;;20.30;56.90;;;;;;5088315;28;20360;-70
2022/12/01 04:53:58;;;;;;;2.63;2.05;;;20.40;57.00;;;;;;5082169;28;20020;-70
2022/12/01 04:56:24;;;;;;;2.90;2.05;;;20.30;56.90;;;;;;5076360;28;20059;-69
2022/12/01 04:58:49;;;;;;;3.00;2.13;;;20.30;56.90;;;;;;5079675;28;20078;-70
2022/12/01 05:01:17;;;;;;;2.92;2.22;;;20.30;56.90;;;;;;5077730;28;20120;-70
2022/12/01 05:03:45;;;;;;;3.90;1.95;;;20.30;57.00;;;;;;5075874;28;20024;-70
2022/12/01 05:06:16;;;;;;;2.83;2.10;;;20.30;57.00;;;;;;5076631;28;20029;-69
2022/12/01 05:08:41;;;;;;;2.92;1.95;;;20.30;57.00;;;;;;5079743;28;20056;-70
2022/12/01 05:11:10;;;;;;;2.63;2.00;;;20.30;57.10;;;;;;5081640;28;20059;-70
2022/12/01 05:13:38;;;;;;;2.42;1.80;;;20.30;57.00;;;;;;5079473;28;20452;-70
2022/12/01 05:16:18;;;;;;;2.95;2.00;;;20.30;57.10;;;;;;5081272;28;20081;-70
2022/12/01 05:20:55;;;;;;;2.88;2.00;;;20.30;57.10;;;;;;5082148;28;20016;-70
2022/12/01 05:21:36;;;;;;;2.85;1.90;;;20.30;57.10;;;;;;5081720;28;20047;-70
2022/12/01 05:24:02;;;;;;;2.47;1.80;;;20.30;57.10;;;;;;5078576;28;20032;-70
2022/12/01 05:26:27;;;;;;;2.60;1.67;;;20.30;57.10;;;;;;5079512;28;20070;-70
2022/12/01 05:28:53;;;;;;;2.90;2.00;;;20.30;57.10;;;;;;5076781;28;20059;-69
2022/12/01 05:31:19;;;;;;;3.17;1.90;;;20.30;57.10;;;;;;5080578;28;20028;-69
2022/12/01 05:33:44;;;;;;;2.70;1.73;;;20.30;57.10;;;;;;5077487;28;20375;-69
2022/12/01 05:36:10;;;;;;;3.10;1.95;;;20.30;57.10;;;;;;5077016;28;20317;-70
2022/12/01 05:38:36;;;;;;;2.80;2.00;;;20.30;57.20;;;;;;5079826;28;20083;-69
2022/12/01 05:41:01;;;;;;;3.10;1.95;;;20.30;57.20;;;;;;5076971;28;20033;-69
2022/12/01 05:43:27;;;;;;;2.97;2.05;;;20.30;57.20;;;;;;5077279;28;20047;-69
2022/12/01 05:45:54;;;;;;;2.42;1.90;;;20.30;57.20;;;;;;5081501;28;20522;-69
2022/12/01 05:48:19;;;;;;;2.92;2.10;;;20.20;57.20;;;;;;5079159;28;20028;-69
2022/12/01 05:50:45;;;;;;;2.55;1.85;;;20.20;57.50;;;;;;5077075;28;20021;-70
2022/12/01 05:53:12;;;;;;;2.75;1.90;;;20.20;57.20;;;;;;5075593;28;20139;-69
2022/12/01 05:55:38;;;;;;;3.08;2.00;;;20.20;57.20;;;;;;5078204;28;20031;-66
2022/12/01 05:58:04;;;;;;;2.33;1.80;;;20.20;57.20;;;;;;5076571;28;20103;-66
2022/12/01 06:00:30;;;;;;;3.10;2.20;;;20.20;57.30;;;;;;5082659;28;20099;-66
2022/12/01 06:02:55;;;;;;;2.65;1.85;;;20.20;57.30;;;;;;5079153;28;20032;-66
2022/12/01 06:05:21;;;;;;;2.70;2.03;;;20.20;57.30;;;;;;5079647;28;20027;-65
2022/12/01 06:07:47;;;;;;;3.47;1.77;;;20.20;57.30;;;;;;5078297;28;20028;-68
2022/12/01 06:10:13;;;;;;;2.60;1.90;;;20.20;57.30;;;;;;5078287;28;20028;-67
2022/12/01 06:12:38;;;;;;;2.65;1.95;;;20.20;57.30;;;;;;5077962;28;20052;-66
2022/12/01 06:15:06;;;;;;;2.88;2.03;;;20.20;57.30;;;;;;5078478;28;20024;-66
2022/12/01 06:17:32;;;;;;;2.40;1.80;;;20.20;57.30;;;;;;5078959;28;20253;-67
2022/12/01 06:19:58;;;;;;;2.50;1.80;;;20.20;57.10;;;;;;5079381;28;20520;-68
2022/12/01 06:22:23;;;;;;;2.78;2.10;;;20.20;57.40;;;;;;5079369;28;20131;-68
2022/12/01 06:24:49;;;;;;;2.80;1.90;;;20.20;57.40;;;;;;5073472;28;20032;-67
2022/12/01 06:27:15;;;;;;;2.85;1.90;;;20.20;57.40;;;;;;5078953;28;20028;-68
2022/12/01 06:29:40;;;;;;;3.13;2.15;;;20.20;57.40;;;;;;5082777;28;20498;-67
2022/12/01 06:32:06;;;;;;;2.95;2.17;;;20.20;57.40;;;;;;5083914;28;20060;-67
2022/12/01 06:34:31;;;;;;;2.63;1.95;;;20.20;57.50;;;;;;5081014;28;20059;-67
2022/12/01 06:36:57;;;;;;;3.22;2.03;;;20.20;57.60;;;;;;5080354;28;20485;-68
2022/12/01 06:39:22;;;;;;;3.30;1.92;;;20.20;57.60;;;;;;5081275;28;20024;-67
2022/12/01 06:41:48;;;;;;;2.80;2.08;;;20.20;57.60;;;;;;5084040;28;20475;-67
2022/12/01 06:44:14;;;;;;;2.63;2.00;;;20.20;57.60;;;;;;5082289;28;20025;-67
2022/12/01 06:46:40;;;;;;;3.05;1.90;;;20.20;57.60;;;;;;5081272;28;20029;-66
2022/12/01 06:49:05;;;;;;;2.85;1.80;;;20.20;57.60;;;;;;5076081;28;20036;-67
2022/12/01 06:51:33;;;;;;;2.30;1.67;;;20.20;57.60;;;;;;5077548;28;20025;-67
2022/12/01 06:53:59;;;;;;;2.55;1.80;;;20.20;57.60;;;;;;5081505;28;20032;-68
2022/12/01 06:56:24;;;;;;;2.67;1.85;;;20.20;57.50;;;;;;5082918;28;20025;-67
2022/12/01 06:58:51;;;;;;;2.75;1.73;;;20.20;57.50;;;;;;5079960;28;20036;-67
2022/12/01 07:01:17;;;;;;;2.97;1.85;;;20.20;57.50;;;;;;5080229;28;20048;-68
2022/12/01 07:03:47;;;;;;;2.42;1.73;;;20.20;57.50;;;;;;5082250;28;20032;-68
2022/12/01 07:06:13;;;;;;;2.83;1.80;;;20.20;57.50;;;;;;5081225;28;20467;-68
2022/12/01 07:08:39;;;;;;;2.80;1.90;;;20.20;57.50;;;;;;5079167;28;20038;-67
2022/12/01 07:11:08;;;;;;;3.00;2.00;;;20.20;57.50;;;;;;5083970;28;20024;-67
2022/12/01 07:13:34;;;;;;;3.72;2.00;;;20.20;57.50;;;;;;5083299;28;20038;-67
2022/12/01 07:16:01;;;;;;;3.45;1.75;;;20.20;57.60;;;;;;5081798;28;20039;-67
2022/12/01 07:18:28;;;;;;;2.60;1.77;;;20.20;57.60;;;;;;5081898;28;20025;-67
2022/12/01 07:20:58;;;;;;;2.85;2.00;;;20.20;57.60;;;;;;5081680;28;20035;-69
2022/12/01 07:23:24;;;;;;;3.45;2.10;;;20.10;57.50;;;;;;5079984;28;20550;-67
2022/12/01 07:25:57;;;;;;;2.90;2.00;;;20.10;57.60;;;;;;5074805;28;20111;-68
2022/12/01 07:28:23;;;;;;;3.42;2.20;;;20.10;57.50;;;;;;5082448;28;20107;-67
2022/12/01 07:30:49;;;;;;;2.90;2.05;;;20.10;57.60;;;;;;5081206;28;20112;-68
2022/12/01 07:33:14;;;;;;;3.00;1.90;;;20.10;57.60;;;;;;5078312;28;20028;-67
2022/12/01 07:35:40;;;;;;;3.97;2.13;;;20.10;57.60;;;;;;5079579;28;20078;-68
2022/12/01 07:38:05;;;;;;;3.15;2.00;;;20.10;57.60;;;;;;5082112;28;20024;-67
2022/12/01 07:40:31;;;;;;;2.90;2.08;;;20.10;57.60;;;;;;5078909;28;20038;-67
2022/12/01 07:42:57;;;;;;;4.28;2.20;;;20.10;57.60;;;;;;5079478;28;20476;-67
2022/12/01 07:45:22;;;;;;;3.80;2.03;;;20.10;57.60;;;;;;5081491;28;20024;-67
2022/12/01 07:47:52;;;;;;;2.90;1.88;;;20.10;57.60;;;;;;5079715;28;20032;-67
2022/12/01 07:50:17;;;;;;;;;;;20.10;57.60;;;;;;5084592;28;20024;-67
2022/12/01 07:52:43;;;;;;;4.22;2.05;;;20.10;57.60;;;;;;5081220;28;19911;-67
2022/12/01 07:55:09;;;;;;;3.50;2.25;;;20.10;58.10;;;;;;5079928;28;20020;-68
2022/12/01 07:57:34;;;;;;;2.78;1.77;;;20.10;57.60;;;;;;5081452;28;20419;-68
2022/12/01 08:00:00;;;;;;;3.45;2.28;;;20.10;57.60;;;;;;5080984;28;20123;-67
2022/12/01 08:02:26;;;;;;;3.72;2.30;;;20.10;57.60;;;;;;5080096;28;20211;-67
2022/12/01 08:04:51;;;;;;;4.75;2.60;;;20.10;57.60;;;;;;5079693;28;20142;-67
2022/12/01 08:07:17;;;;;;;3.78;2.17;;;20.10;57.60;;;;;;5080548;28;20028;-67
2022/12/01 08:09:43;;;;;;;5.68;2.67;;;20.10;57.60;;;;;;5078710;28;20025;-67
2022/12/01 08:12:09;;;;;;;3.97;2.25;;;20.10;57.60;;;;;;5077302;28;20510;-68
2022/12/01 08:14:35;;;;;;;4.10;2.55;;;20.10;57.60;;;;;;5087486;28;20078;-66
2022/12/01 08:17:00;;;;;;;3.50;2.30;;;20.10;57.60;;;;;;5081499;28;20039;-67
2022/12/01 08:19:28;;;;;;;4.75;2.30;;;20.10;57.60;;;;;;5082735;28;20143;-66
2022/12/01 08:21:53;;;;;;;4.50;2.17;;;20.10;57.60;;;;;;5079622;28;20395;-66
2022/12/01 08:24:19;;;;;;;5.05;2.60;;;20.00;57.80;;;;;;5080783;28;20032;-66
2022/12/01 08:26:44;;;;;;;6.57;3.08;;;20.10;57.60;;;;;;5078933;28;20028;-66
2022/12/01 08:29:10;;;;;;;4.32;2.20;;;20.10;57.60;;;;;;5079141;28;20135;-66
2022/12/01 08:31:36;;;;;;;5.07;2.80;;;20.10;57.60;;;;;;5083719;28;20526;-67
2022/12/01 08:34:05;;;;;;;4.22;2.60;;;20.10;58.20;;;;;;5083597;28;20050;-66
2022/12/01 08:36:31;;;;;;;5.07;2.70;;;20.10;57.70;;;;;;5082084;28;20478;-67
2022/12/01 08:38:57;;;;;;;4.28;2.78;;;20.00;57.60;;;;;;5080854;28;20385;-67
2022/12/01 08:41:24;;;;;;;4.82;2.85;;;20.00;57.60;;;;;;5080639;28;20127;-66
2022/12/01 08:43:49;;;;;;;5.90;2.85;;;20.00;57.60;;;;;;5079558;28;20448;-66
2022/12/01 08:46:15;;;;;;;4.97;3.00;;;20.10;57.60;;;;;;5080527;28;20102;-67
2022/12/01 08:48:41;;;;;;;4.40;2.50;;;20.00;57.60;;;;;;5079923;28;20039;-67
2022/12/01 08:51:15;;;;;;;6.75;3.25;;;20.00;58.20;;;;;;5077954;28;20047;-67
2022/12/01 08:53:44;;;;;;;5.22;2.80;;;20.10;57.70;;;;;;5078910;28;20074;-67
2022/12/01 08:56:13;;;;;;;7.17;3.10;;;20.00;57.70;;;;;;5079047;28;20130;-68
2022/12/01 08:58:39;;;;;;;;;;;20.00;57.60;;;;;;5085248;28;20313;-67
2022/12/01 09:01:10;;;;;;;4.18;2.67;;;20.00;57.70;;;;;;5085647;28;19936;-66
2022/12/01 09:03:37;;;;;;;6.32;3.10;;;20.00;57.70;;;;;;5081773;28;20024;-67
2022/12/01 09:06:10;;;;;;;5.00;2.78;;;20.10;57.70;;;;;;5081639;28;20531;-67
2022/12/01 09:08:36;;;;;;;5.00;2.90;;;20.10;57.70;;;;;;5077693;28;20498;-66
2022/12/01 09:11:05;;;;;;;4.78;2.92;;;20.00;57.70;;;;;;5080465;28;20031;-66
2022/12/01 09:13:35;;;;;;;7.25;3.08;;;20.00;57.70;;;;;;5077000;28;20111;-67
2022/12/01 09:16:04;;;;;;;4.25;2.80;;;20.10;57.70;;;;;;5079174;28;20321;-68
2022/12/01 09:18:30;;;;;;;5.00;3.20;;;20.00;57.70;;;;;;5081829;28;20411;-67
2022/12/01 09:20:57;;;;;;;5.55;2.90;;;20.00;57.70;;;;;;5076212;28;20032;-67
2022/12/01 09:23:23;;;;;;;5.25;3.00;;;20.00;58.20;;;;;;5077191;28;20057;-66
2022/12/01 09:25:50;;;;;;;5.80;3.28;;;20.00;57.70;;;;;;5072778;28;20066;-67
2022/12/01 09:28:16;;;;;;;6.28;3.00;;;20.00;57.70;;;;;;5076086;28;20534;-66
2022/12/01 09:30:43;;;;;;;5.68;3.47;;;20.00;57.70;;;;;;5079927;28;20513;-66
2022/12/01 09:33:09;;;;;;;5.72;3.13;;;20.00;57.70;;;;;;5083398;28;20439;-66
2022/12/01 09:35:35;;;;;;;5.95;3.03;;;20.00;57.70;;;;;;5081890;28;20135;-66
2022/12/01 09:38:00;;;;;;;5.35;3.10;;;20.00;57.70;;;;;;5084436;28;20035;-66
2022/12/01 09:40:38;;;;;;;4.82;3.10;;;20.00;57.70;;;;;;5078126;28;20174;-67
2022/12/01 09:43:15;;;;;;;6.25;3.10;;;20.00;57.70;;;;;;5079507;28;20108;-66
2022/12/01 09:45:44;;;;;;;6.57;3.20;;;20.00;57.70;;;;;;5080442;28;20047;-67
2022/12/01 09:48:28;;;;;;;5.53;3.20;;;20.00;57.70;;;;;;5079364;28;20052;-66
2022/12/01 09:50:54;;;;;;;4.40;3.03;;;20.00;57.70;;;;;;5079120;28;20455;-66
2022/12/01 09:53:24;;;;;;;4.93;2.95;;;20.00;57.70;;;;;;5081861;28;20018;-66
2022/12/01 09:55:50;;;;;;;5.22;3.30;;;20.00;58.20;;;;;;5079030;28;20017;-66
2022/12/01 09:58:20;;;;;;;5.25;3.00;;;20.00;57.70;;;;;;5080176;28;20058;-67
2022/12/01 10:00:47;;;;;;;4.43;2.78;;;20.00;57.70;;;;;;5079987;28;20031;-67
2022/12/01 10:03:34;;;;;;;4.50;2.70;;;20.00;57.70;;;;;;5079569;28;20103;-66
2022/12/01 10:06:09;;;;;;;4.75;3.00;;;20.00;57.70;;;;;;5081958;28;20783;-68
2022/12/01 10:08:40;;;;;;;4.97;2.70;;;20.00;57.70;;;;;;5087209;28;20051;-66
2022/12/01 10:11:23;;;;;;;4.35;2.53;;;20.00;57.80;;;;;;5089967;28;20084;-66
2022/12/01 10:13:55;;;;;;;4.03;2.42;;;20.00;57.80;;;;;;5090728;28;20023;-68
2022/12/01 10:16:38;;;;;;;4.65;2.63;;;20.10;58.00;;;;;;5095346;28;20474;-67
2022/12/01 10:19:06;;;;;;;5.22;2.70;;;20.00;57.90;;;;;;5094568;28;20028;-66
2022/12/01 10:22:04;;;;;;;3.80;2.40;;;20.10;57.90;;;;;;5090999;28;20035;-66
2022/12/01 10:25:00;;;;;;;5.03;2.80;;;20.10;57.80;;;;;;5093105;28;20024;-67
2022/12/01 10:27:41;;;;;;;5.53;2.83;;;20.20;57.70;;;;;;5090412;28;20024;-66
2022/12/01 10:30:14;;;;;;;4.88;2.88;;;20.20;57.60;;;;;;5093749;28;20039;-67
2022/12/01 10:33:13;;;;;;;6.00;3.47;;;20.20;57.60;;;;;;5090449;28;20020;-67
2022/12/01 10:35:39;;;;;;;5.50;2.92;;;20.30;57.50;;;;;;5096959;28;20029;-66
2022/12/01 10:38:12;;;;;;;5.35;3.30;;;20.30;57.30;;;;;;5087989;28;20111;-66
2022/12/01 10:40:38;;;;;;;5.07;3.28;;;20.40;57.30;;;;;;5101196;28;20025;-67
2022/12/01 10:43:03;;;;;;;4.75;3.13;;;20.40;57.20;;;;;;5093136;28;20506;-68
2022/12/01 10:45:40;;;;;;;5.22;3.20;;;20.50;57.10;;;;;;5092378;28;20028;-66
2022/12/01 10:48:26;;;;;;;4.35;3.05;;;20.50;57.10;;;;;;5088432;28;20043;-66
2022/12/01 10:50:54;;;;;;;4.60;3.05;;;20.50;57.10;;;;;;5078722;28;20058;-66
2022/12/01 10:53:22;;;;;;;5.07;2.88;;;20.50;57.10;;;;;;5083626;28;20066;-67
2022/12/01 10:56:14;;;;;;;6.27;3.13;;;20.50;57.50;;;;;;5078338;28;20057;-67
2022/12/01 10:59:00;;;;;;;4.13;2.70;;;20.60;58.20;;;;;;5077413;28;20028;-67
2022/12/01 11:01:34;;;;;;;5.50;3.35;;;21.00;58.10;;;;;;5085277;28;20438;-68
2022/12/01 11:04:22;;;;;;;5.30;2.75;;;21.20;57.50;;;;;;5086396;28;20115;-68
2022/12/01 11:06:49;;;;;;;4.03;2.47;;;21.20;57.50;;;;;;5084313;28;20494;-67
2022/12/01 11:09:22;;;;;;;3.75;2.40;;;21.20;57.70;;;;;;5080918;28;20115;-67
2022/12/01 11:11:58;;;;;;;3.70;2.40;;;21.20;58.00;;;;;;5080045;28;20166;-67
2022/12/01 11:14:34;;;;;;;3.90;2.53;;;21.20;58.20;;;;;;5081406;28;20616;-67
2022/12/01 11:17:25;;;;;;;3.65;2.33;;;21.20;58.20;;;;;;5081124;28;20031;-68
2022/12/01 11:19:51;;;;;;;4.13;2.60;;;21.20;58.50;;;;;;5080913;28;20036;-67
2022/12/01 11:22:26;;;;;;;4.22;2.47;;;21.20;58.50;;;;;;5079348;28;20047;-67
2022/12/01 11:24:51;;;;;;;4.03;2.50;;;21.20;58.50;;;;;;5083438;28;20044;-67
2022/12/01 11:27:30;;;;;;;3.60;2.28;;;21.20;58.50;;;;;;5084471;28;20145;-67
2022/12/01 11:30:03;;;;;;;3.65;2.20;;;21.30;58.70;;;;;;5079492;28;20162;-67
2022/12/01 11:32:38;;;;;;;3.85;2.67;;;21.30;58.60;;;;;;5079846;28;20028;-67
2022/12/01 11:35:12;;;;;;;3.40;2.15;;;21.30;58.70;;;;;;5078549;28;20471;-69
2022/12/01 11:37:44;;;;;;;3.67;2.38;;;21.40;58.80;;;;;;5083238;28;20493;-67
2022/12/01 11:40:22;;;;;;;4.50;2.90;;;21.40;59.10;;;;;;5089115;28;20055;-67
2022/12/01 11:42:50;;;;;;;4.70;3.00;;;21.40;57.00;;;;;;5080068;28;20119;-67
2022/12/01 11:45:32;;;;;;;5.10;3.20;;;21.40;56.30;;;;;;5076107;28;20021;-68
2022/12/01 11:48:17;;;;;;;4.10;3.03;;;21.40;56.00;;;;;;5082462;28;20071;-69
2022/12/01 11:50:58;;;;;;;4.20;2.90;;;21.40;55.90;;;;;;5084674;28;20024;-68
2022/12/01 11:53:35;;;;;;;4.28;2.80;;;21.40;56.40;;;;;;5077116;28;20111;-68
2022/12/01 11:56:22;;;;;;;4.07;2.38;;;21.40;56.70;;;;;;5081772;28;20025;-67
2022/12/01 11:59:04;;;;;;;3.80;2.60;;;21.40;57.10;;;;;;5087196;28;20443;-68
2022/12/01 12:01:35;;;;;;;3.53;2.70;;;21.50;57.30;;;;;;5080052;28;20039;-69
2022/12/01 12:04:33;;;;;;;3.63;2.45;;;21.50;57.40;;;;;;5081319;28;20127;-68
2022/12/01 12:07:16;;;;;;;3.97;2.40;;;21.50;57.50;;;;;;5069724;28;20455;-68
2022/12/01 12:10:20;;;;;;;3.42;2.42;;;21.60;57.70;;;;;;5075390;28;20062;-69
2022/12/01 12:13:01;;;;;;;4.20;2.47;;;21.60;57.80;;;;;;5090394;28;20029;-67
2022/12/01 12:15:37;;;;;;;4.13;2.53;;;21.60;57.90;;;;;;5080697;28;20025;-67
2022/12/01 12:18:31;;;;;;;3.35;2.28;;;21.70;58.00;;;;;;5078613;28;20032;-68
2022/12/01 12:21:21;;;;;;;3.30;2.13;;;21.70;58.20;;;;;;5080273;28;20111;-67
2022/12/01 12:24:17;;;;;;;3.28;2.20;;;21.80;58.20;;;;;;5079926;28;20027;-68
2022/12/01 12:26:57;;;;;;;3.67;2.08;;;21.80;58.30;;;;;;5079502;28;20400;-68
2022/12/01 12:29:52;;;;;;;3.15;2.25;;;21.80;58.20;;;;;;5077859;28;20046;-68
2022/12/01 12:32:40;;;;;;;3.22;2.20;;;21.90;58.50;;;;;;5078438;28;20454;-67
2022/12/01 12:35:43;;;;;;;4.25;2.30;;;21.90;58.60;;;;;;5076590;28;20035;-69
2022/12/01 12:38:28;;;;;;;3.85;2.33;;;22.00;59.30;;;;;;5081682;28;20436;-67
2022/12/01 12:40:55;;;;;;;3.75;2.30;;;22.00;59.30;;;;;;5086757;28;20115;-68
2022/12/01 12:44:02;;;;;;;3.38;1.92;;;22.10;59.30;;;;;;5079888;28;20048;-68
2022/12/01 12:46:45;;;;;;;3.38;2.13;;;22.10;59.50;;;;;;5081133;28;20074;-67
2022/12/01 12:49:33;;;;;;;3.20;1.90;;;22.20;59.40;;;;;;5080359;28;20052;-68
2022/12/01 12:52:12;;;;;;;4.38;2.10;;;22.20;59.30;;;;;;5082190;28;20379;-68
2022/12/01 12:54:58;;;;;;;3.53;2.10;;;22.20;59.10;;;;;;5081832;28;20102;-68
2022/12/01 12:57:35;;;;;;;4.28;2.10;;;22.20;59.20;;;;;;5079828;28;20016;-67
2022/12/01 13:00:12;;;;;;;3.53;2.05;;;22.20;59.20;;;;;;5079217;28;20036;-67
2022/12/01 13:02:46;;;;;;;3.85;2.00;;;22.30;59.10;;;;;;5078528;28;20439;-67
2022/12/01 13:05:32;;;;;;;3.42;2.20;;;22.30;59.20;;;;;;5078207;28;20020;-68
2022/12/01 13:08:11;;;;;;;3.20;2.17;;;22.30;59.20;;;;;;5080250;28;20107;-67
2022/12/01 13:11:31;;;;;;;3.30;2.20;;;22.30;59.40;;;;;;5078650;28;20096;-67